Time;durP1;ratioP1;P1;durP2;ratioP2;P2;SDS_P1;SDS_P2;PMS_P1;PMS_P2;Temp;Humidity;BMP_temperature;BMP_pressure;BME280_temperature;BME280_humidity;BME280_pressure;Samples;Min_cycle;Max_cycle;Signal;HPM_P1;HPM_P2
2022/08/21 00:02:24;;;;;;;4.47;1.88;;;18.70;99.90;;;;;;5001095;28;20085;-72
2022/08/21 00:04:51;;;;;;;7.97;3.33;;;18.70;99.90;;;;;;4999390;28;20081;-69
2022/08/21 00:07:24;;;;;;;5.25;2.35;;;18.70;99.90;;;;;;5002257;28;20061;-69
2022/08/21 00:09:52;;;;;;;6.88;2.30;;;18.70;99.90;;;;;;4996297;28;20044;-70
2022/08/21 00:12:20;;;;;;;5.60;1.73;;;18.70;99.90;;;;;;4994557;28;20046;-70
2022/08/21 00:14:47;;;;;;;4.38;2.15;;;18.70;99.90;;;;;;5001626;28;20089;-69
2022/08/21 00:17:13;;;;;;;7.97;2.92;;;18.70;99.90;;;;;;4996166;28;20057;-70
2022/08/21 00:19:40;;;;;;;3.28;2.55;;;18.70;99.90;;;;;;4990903;28;20042;-70
2022/08/21 00:22:07;;;;;;;4.30;2.47;;;18.70;99.90;;;;;;4998736;28;20072;-70
2022/08/21 00:24:34;;;;;;;6.78;2.30;;;18.70;99.90;;;;;;4993948;28;20606;-69
2022/08/21 00:27:01;;;;;;;7.95;3.03;;;18.60;99.90;;;;;;5002223;28;20065;-70
2022/08/21 00:29:28;;;;;;;3.95;2.63;;;18.60;99.90;;;;;;4996721;28;20222;-70
2022/08/21 00:31:55;;;;;;;3.28;1.95;;;18.60;99.90;;;;;;5003494;28;20046;-70
2022/08/21 00:34:22;;;;;;;5.95;2.55;;;18.60;99.90;;;;;;4996884;28;20483;-70
2022/08/21 00:36:49;;;;;;;5.22;1.55;;;18.60;99.90;;;;;;5000768;28;20479;-70
2022/08/21 00:39:16;;;;;;;4.35;2.10;;;18.50;99.90;;;;;;4993979;28;20229;-72
2022/08/21 00:41:43;;;;;;;4.60;2.70;;;18.40;99.90;;;;;;5002593;28;20734;-69
2022/08/21 00:44:13;;;;;;;4.80;2.42;;;18.40;99.90;;;;;;5004996;28;20431;-69
2022/08/21 00:46:41;;;;;;;3.85;2.20;;;18.30;99.90;;;;;;5000568;28;20493;-71
2022/08/21 00:49:09;;;;;;;9.77;2.22;;;18.30;99.90;;;;;;4996584;28;20104;-71
2022/08/21 00:51:45;;;;;;;12.73;2.17;;;18.30;99.90;;;;;;5000400;28;20050;-71
2022/08/21 00:54:13;;;;;;;2.80;1.70;;;18.30;99.90;;;;;;4998911;28;20054;-71
2022/08/21 00:56:50;;;;;;;2.60;1.50;;;18.30;99.90;;;;;;5000073;28;20053;-70
2022/08/21 00:59:19;;;;;;;3.60;1.95;;;18.20;99.90;;;;;;4996429;28;20049;-70
2022/08/21 01:01:46;;;;;;;5.95;1.55;;;18.20;99.90;;;;;;4990853;28;20034;-71
2022/08/21 01:04:15;;;;;;;6.32;1.73;;;18.20;99.90;;;;;;4998122;28;20081;-70
2022/08/21 01:06:43;;;;;;;4.00;1.92;;;18.20;99.90;;;;;;4993268;28;20541;-70
2022/08/21 01:09:11;;;;;;;4.72;1.80;;;18.20;99.90;;;;;;4992926;28;20117;-75
2022/08/21 01:11:38;;;;;;;5.22;3.15;;;18.20;99.90;;;;;;4993037;28;20049;-71
2022/08/21 01:14:05;;;;;;;6.78;1.90;;;18.10;99.90;;;;;;5000327;28;20321;-71
2022/08/21 01:16:33;;;;;;;8.10;3.28;;;18.10;99.90;;;;;;4989599;28;20061;-70
2022/08/21 01:19:00;;;;;;;5.15;1.83;;;18.10;99.90;;;;;;4993465;28;20116;-70
2022/08/21 01:21:28;;;;;;;14.60;2.08;;;18.00;99.90;;;;;;4988904;28;20388;-70
2022/08/21 01:23:56;;;;;;;2.72;1.48;;;18.00;99.90;;;;;;4994531;28;20443;-71
2022/08/21 01:26:29;;;;;;;3.75;1.63;;;17.90;99.90;;;;;;4991260;28;20134;-70
2022/08/21 01:29:06;;;;;;;4.55;2.22;;;17.80;99.90;;;;;;5000635;28;20830;-71
2022/08/21 01:31:33;;;;;;;7.25;2.33;;;17.70;99.90;;;;;;4990839;28;20077;-70
2022/08/21 01:34:01;;;;;;;7.18;2.92;;;17.70;99.90;;;;;;4998315;28;20089;-70
2022/08/21 01:36:28;;;;;;;4.10;1.60;;;17.70;99.90;;;;;;5003199;28;20073;-70
2022/08/21 01:38:55;;;;;;;5.03;1.80;;;17.70;99.90;;;;;;4999733;28;20099;-70
2022/08/21 01:41:22;;;;;;;3.08;2.00;;;17.70;99.90;;;;;;4994386;28;20049;-69
2022/08/21 01:43:49;;;;;;;4.28;2.05;;;17.70;99.90;;;;;;4994673;28;20046;-68
2022/08/21 01:46:17;;;;;;;4.10;2.20;;;17.70;99.90;;;;;;4998567;28;20034;-71
2022/08/21 01:48:44;;;;;;;3.95;1.88;;;17.60;99.90;;;;;;4998363;28;20042;-70
2022/08/21 01:51:11;;;;;;;5.43;1.73;;;17.60;99.90;;;;;;5003206;28;20477;-70
2022/08/21 01:53:38;;;;;;;5.18;3.33;;;17.60;99.90;;;;;;4998459;28;20050;-70
2022/08/21 01:56:08;;;;;;;6.50;2.38;;;17.50;99.90;;;;;;5000483;28;20153;-70
2022/08/21 01:58:40;;;;;;;6.95;2.25;;;17.50;99.90;;;;;;4994782;28;20185;-75
2022/08/21 02:01:09;;;;;;;6.93;2.33;;;17.50;99.90;;;;;;4996399;28;20050;-69
2022/08/21 02:03:37;;;;;;;3.10;1.17;;;17.50;99.90;;;;;;4995264;28;20094;-69
2022/08/21 02:06:06;;;;;;;4.78;2.33;;;17.50;99.90;;;;;;4996873;28;20096;-70
2022/08/21 02:08:34;;;;;;;2.47;1.03;;;17.50;99.90;;;;;;4996857;28;20104;-69
2022/08/21 02:11:01;;;;;;;5.00;1.60;;;17.50;99.90;;;;;;4993805;28;20205;-70
2022/08/21 02:13:28;;;;;;;5.72;1.75;;;17.50;99.90;;;;;;4992439;28;20045;-70
2022/08/21 02:15:55;;;;;;;5.95;1.85;;;17.50;99.90;;;;;;4991762;28;20057;-69
2022/08/21 02:18:22;;;;;;;5.15;1.58;;;17.50;99.90;;;;;;4990675;28;20038;-70
2022/08/21 02:20:49;;;;;;;7.30;2.15;;;17.50;99.90;;;;;;4993843;28;20406;-69
2022/08/21 02:23:22;;;;;;;4.00;1.30;;;17.50;99.90;;;;;;5009898;28;20046;-69
2022/08/21 02:26:00;;;;;;;2.42;1.33;;;17.50;99.90;;;;;;5002278;28;20966;-70
2022/08/21 02:28:27;;;;;;;5.28;2.25;;;17.50;99.90;;;;;;4991209;28;20057;-71
2022/08/21 02:30:56;;;;;;;3.17;1.35;;;17.40;99.90;;;;;;4994249;28;20121;-69
2022/08/21 02:33:23;;;;;;;5.78;1.90;;;17.50;99.90;;;;;;4994958;28;20451;-70
2022/08/21 02:35:51;;;;;;;4.25;1.90;;;17.40;99.90;;;;;;4988636;28;20066;-70
2022/08/21 02:38:26;;;;;;;5.07;2.28;;;17.50;99.90;;;;;;4994564;28;20052;-70
2022/08/21 02:40:54;;;;;;;7.85;2.80;;;17.40;99.90;;;;;;4997631;28;20091;-69
2022/08/21 02:43:23;;;;;;;4.57;1.65;;;17.40;99.90;;;;;;4996368;28;20056;-69
2022/08/21 02:45:51;;;;;;;3.03;2.13;;;17.40;99.90;;;;;;4994940;28;20050;-69
2022/08/21 02:48:21;;;;;;;7.60;2.00;;;17.40;99.90;;;;;;5003622;28;20942;-69
2022/08/21 02:50:58;;;;;;;5.40;2.90;;;17.40;99.90;;;;;;5000577;28;20073;-69
2022/08/21 02:53:26;;;;;;;9.77;2.35;;;17.40;99.90;;;;;;5001090;28;20487;-70
2022/08/21 02:55:53;;;;;;;5.28;3.28;;;17.50;99.90;;;;;;4997996;28;20117;-69
2022/08/21 02:58:24;;;;;;;3.40;1.55;;;17.50;99.90;;;;;;5002082;28;20073;-69
2022/08/21 03:00:51;;;;;;;4.68;2.00;;;17.50;99.90;;;;;;4988805;28;20038;-70
2022/08/21 03:03:20;;;;;;;3.80;2.20;;;17.50;99.90;;;;;;4990482;28;20140;-69
2022/08/21 03:05:48;;;;;;;3.28;1.73;;;17.50;99.90;;;;;;4992218;28;20050;-70
2022/08/21 03:08:16;;;;;;;4.00;1.73;;;17.50;99.90;;;;;;4993280;28;20060;-69
2022/08/21 03:10:46;;;;;;;7.93;1.95;;;17.50;99.90;;;;;;5001021;28;20147;-69
2022/08/21 03:13:14;;;;;;;8.45;2.80;;;17.50;99.90;;;;;;4998375;28;20045;-69
2022/08/21 03:15:41;;;;;;;3.08;1.75;;;17.50;99.90;;;;;;4999210;28;20745;-69
2022/08/21 03:18:10;;;;;;;5.68;2.05;;;17.50;99.90;;;;;;4998597;28;20073;-70
2022/08/21 03:20:39;;;;;;;7.93;2.50;;;17.50;99.90;;;;;;5003532;28;20054;-69
2022/08/21 03:23:07;;;;;;;6.43;2.20;;;17.50;99.90;;;;;;4997548;28;20038;-70
2022/08/21 03:25:41;;;;;;;8.88;2.80;;;17.60;99.90;;;;;;4999721;28;20148;-70
2022/08/21 03:28:11;;;;;;;9.98;3.10;;;17.60;99.90;;;;;;5009229;28;20046;-69
2022/08/21 03:30:41;;;;;;;5.97;2.90;;;17.60;99.90;;;;;;5003049;28;20050;-70
2022/08/21 03:33:09;;;;;;;6.43;2.58;;;17.60;99.90;;;;;;5005542;28;20136;-69
2022/08/21 03:35:45;;;;;;;7.47;4.28;;;17.70;99.90;;;;;;4996844;28;20050;-70
2022/08/21 03:38:12;;;;;;;6.65;2.25;;;17.70;99.90;;;;;;5001320;28;20500;-69
2022/08/21 03:40:40;;;;;;;5.43;3.10;;;17.70;99.90;;;;;;4999578;28;20672;-70
2022/08/21 03:43:09;;;;;;;16.13;3.15;;;17.70;99.90;;;;;;4999353;28;20046;-71
2022/08/21 03:45:37;;;;;;;10.38;2.83;;;17.60;99.90;;;;;;4991843;28;20062;-70
2022/08/21 03:48:05;;;;;;;10.57;2.17;;;17.60;99.90;;;;;;5006971;28;20065;-70
2022/08/21 03:50:36;;;;;;;9.52;1.98;;;17.60;99.90;;;;;;5000820;28;20483;-70
2022/08/21 03:53:08;;;;;;;4.45;2.05;;;17.50;99.90;;;;;;5004848;28;20060;-70
2022/08/21 03:55:44;;;;;;;5.28;1.60;;;17.50;99.90;;;;;;5002558;28;20144;-70
2022/08/21 03:58:10;;;;;;;4.18;1.90;;;17.50;99.90;;;;;;5002308;28;20133;-69
2022/08/21 04:00:43;;;;;;;4.88;1.77;;;17.40;99.90;;;;;;4998735;28;20401;-70
2022/08/21 04:03:10;;;;;;;6.63;1.80;;;17.40;99.90;;;;;;5001795;28;20069;-70
2022/08/21 04:05:38;;;;;;;6.50;2.88;;;17.30;99.90;;;;;;4988537;28;20061;-71
2022/08/21 04:08:06;;;;;;;4.35;2.00;;;17.20;99.90;;;;;;4999115;28;20074;-70
2022/08/21 04:10:36;;;;;;;6.57;1.80;;;17.20;99.90;;;;;;5004594;28;20085;-72
2022/08/21 04:13:03;;;;;;;3.77;1.60;;;17.10;99.90;;;;;;4998862;28;20046;-70
2022/08/21 04:15:30;;;;;;;8.82;2.97;;;17.10;99.90;;;;;;4992067;28;20383;-70
2022/08/21 04:17:58;;;;;;;4.18;2.22;;;17.10;99.90;;;;;;4995992;28;20444;-71
2022/08/21 04:20:25;;;;;;;3.20;1.63;;;17.10;99.90;;;;;;4999284;28;20107;-71
2022/08/21 04:22:53;;;;;;;4.18;2.40;;;17.10;99.90;;;;;;4999919;28;20049;-70
2022/08/21 04:25:22;;;;;;;6.80;1.88;;;17.20;99.90;;;;;;4991058;28;20118;-71
2022/08/21 04:27:49;;;;;;;8.80;2.45;;;17.20;99.90;;;;;;5000082;28;20130;-70
2022/08/21 04:30:17;;;;;;;5.13;1.95;;;17.20;99.90;;;;;;5003720;28;20046;-69
2022/08/21 04:32:49;;;;;;;3.90;1.92;;;17.20;99.90;;;;;;4999455;28;20508;-71
2022/08/21 04:35:21;;;;;;;3.90;1.90;;;17.20;99.90;;;;;;5003250;28;20061;-69
2022/08/21 04:37:48;;;;;;;6.72;1.95;;;17.20;99.90;;;;;;5004097;28;20517;-69
2022/08/21 04:40:17;;;;;;;3.55;1.80;;;17.30;99.90;;;;;;4992357;28;20136;-70
2022/08/21 04:42:54;;;;;;;4.28;1.75;;;17.30;99.90;;;;;;5001536;28;20096;-69
2022/08/21 04:45:25;;;;;;;8.45;2.53;;;17.30;99.90;;;;;;4991177;28;20052;-70
2022/08/21 04:47:54;;;;;;;3.67;1.40;;;17.30;99.90;;;;;;4997473;28;20050;-70
2022/08/21 04:50:30;;;;;;;9.27;3.10;;;17.30;99.90;;;;;;5001183;28;20464;-70
2022/08/21 04:53:07;;;;;;;6.05;2.65;;;17.30;99.90;;;;;;5002397;28;20060;-71
2022/08/21 04:55:34;;;;;;;3.78;2.33;;;17.40;99.90;;;;;;4998233;28;20069;-71
2022/08/21 04:58:01;;;;;;;5.25;1.92;;;17.40;99.90;;;;;;5003121;28;20530;-70
2022/08/21 05:00:28;;;;;;;6.70;1.63;;;17.40;99.90;;;;;;4992128;28;20034;-70
2022/08/21 05:02:58;;;;;;;5.50;2.17;;;17.40;99.90;;;;;;4992030;28;20331;-70
2022/08/21 05:05:28;;;;;;;3.67;1.88;;;17.50;99.90;;;;;;4992671;28;20766;-71
2022/08/21 05:07:58;;;;;;;2.72;1.85;;;17.50;99.90;;;;;;5002026;28;20062;-69
2022/08/21 05:10:26;;;;;;;6.45;2.35;;;17.50;99.90;;;;;;4992678;28;20050;-70
2022/08/21 05:12:53;;;;;;;2.35;1.35;;;17.60;99.90;;;;;;5000048;28;20224;-70
2022/08/21 05:15:20;;;;;;;5.22;1.85;;;17.60;99.90;;;;;;4990588;28;20042;-72
2022/08/21 05:17:47;;;;;;;8.25;2.55;;;17.60;99.90;;;;;;4997697;28;20061;-70
2022/08/21 05:20:28;;;;;;;5.60;2.10;;;17.60;99.90;;;;;;5000936;28;20052;-70
2022/08/21 05:22:55;;;;;;;8.88;2.13;;;17.60;99.90;;;;;;4998160;28;20313;-70
2022/08/21 05:25:22;;;;;;;4.20;2.15;;;17.70;99.90;;;;;;5001261;28;20104;-70
2022/08/21 05:27:49;;;;;;;6.63;2.47;;;17.70;99.90;;;;;;5003042;28;20046;-70
2022/08/21 05:30:19;;;;;;;4.43;1.40;;;17.80;99.90;;;;;;5003348;28;20065;-71
2022/08/21 05:32:47;;;;;;;3.63;1.85;;;17.80;99.90;;;;;;4998643;28;20054;-71
2022/08/21 05:35:15;;;;;;;5.47;1.83;;;17.80;99.90;;;;;;4997563;28;20400;-70
2022/08/21 05:37:42;;;;;;;7.20;2.45;;;17.80;99.90;;;;;;4995247;28;20092;-70
2022/08/21 05:40:09;;;;;;;5.30;1.83;;;17.80;99.90;;;;;;4993246;28;20396;-71
2022/08/21 05:42:53;;;;;;;5.35;1.35;;;17.80;99.90;;;;;;5000318;28;20231;-70
2022/08/21 05:45:28;;;;;;;5.65;2.08;;;17.80;99.90;;;;;;4996943;28;20091;-70
2022/08/21 05:48:36;;;;;;;3.72;1.20;;;17.90;99.90;;;;;;5001516;28;20045;-70
2022/08/21 05:51:14;;;;;;;3.45;1.30;;;17.90;99.90;;;;;;4999263;28;20080;-70
2022/08/21 05:53:42;;;;;;;2.58;1.73;;;17.90;99.90;;;;;;4998767;28;20060;-70
2022/08/21 05:56:10;;;;;;;5.85;1.27;;;18.00;99.90;;;;;;4990189;28;20159;-70
2022/08/21 05:58:37;;;;;;;7.45;2.38;;;18.00;99.90;;;;;;4997582;28;20093;-69
2022/08/21 06:01:05;;;;;;;3.58;1.50;;;18.10;99.90;;;;;;4991597;28;20133;-70
2022/08/21 06:03:35;;;;;;;2.08;1.70;;;18.10;99.90;;;;;;4998095;28;20078;-70
2022/08/21 06:06:03;;;;;;;4.22;1.15;;;18.10;99.90;;;;;;5001957;28;20214;-70
2022/08/21 06:08:30;;;;;;;5.22;1.25;;;18.20;99.90;;;;;;5003658;28;20096;-69
2022/08/21 06:10:59;;;;;;;4.57;2.05;;;18.20;99.90;;;;;;5000576;28;20437;-70
2022/08/21 06:13:27;;;;;;;5.60;1.67;;;18.30;99.90;;;;;;4997385;28;20484;-70
2022/08/21 06:16:09;;;;;;;2.63;1.58;;;18.30;99.90;;;;;;4991967;28;20160;-70
2022/08/21 06:18:41;;;;;;;2.58;1.45;;;18.30;99.90;;;;;;4994260;28;20492;-70
2022/08/21 06:21:09;;;;;;;3.25;2.15;;;18.40;99.90;;;;;;4995489;28;20066;-70
2022/08/21 06:23:36;;;;;;;7.05;2.15;;;18.40;99.90;;;;;;4999115;28;20071;-69
2022/08/21 06:26:05;;;;;;;3.90;1.55;;;18.40;99.90;;;;;;4997881;28;20455;-71
2022/08/21 06:28:32;;;;;;;5.30;1.80;;;18.40;99.90;;;;;;5000765;28;20046;-70
2022/08/21 06:30:59;;;;;;;5.50;3.55;;;18.40;99.90;;;;;;5003645;28;20384;-69
2022/08/21 06:33:26;;;;;;;6.72;3.15;;;18.40;99.90;;;;;;4989959;28;20164;-70
2022/08/21 06:35:58;;;;;;;6.45;2.60;;;18.40;99.90;;;;;;4986180;28;20421;-69
2022/08/21 06:38:25;;;;;;;5.63;2.30;;;18.40;99.90;;;;;;4999276;28;20042;-70
2022/08/21 06:40:52;;;;;;;6.78;1.85;;;18.40;99.90;;;;;;4996301;28;20375;-71
2022/08/21 06:43:19;;;;;;;4.18;1.98;;;18.50;99.90;;;;;;4996086;28;20046;-69
2022/08/21 06:45:46;;;;;;;6.55;3.00;;;18.50;99.90;;;;;;4992311;28;20078;-68
2022/08/21 06:48:13;;;;;;;7.13;2.42;;;18.50;99.90;;;;;;4997258;28;20066;-70
2022/08/21 06:50:45;;;;;;;5.00;2.17;;;18.50;99.90;;;;;;4996812;28;20081;-69
2022/08/21 06:53:17;;;;;;;9.40;2.75;;;18.50;99.90;;;;;;5000199;28;20088;-68
2022/08/21 06:55:45;;;;;;;5.50;1.88;;;18.60;99.90;;;;;;4992559;28;20112;-69
2022/08/21 06:58:13;;;;;;;6.15;1.90;;;18.60;99.90;;;;;;4991367;28;20093;-69
2022/08/21 07:00:44;;;;;;;4.65;2.08;;;18.60;99.90;;;;;;4989309;28;20042;-68
2022/08/21 07:03:25;;;;;;;9.32;3.85;;;18.70;99.90;;;;;;4990336;28;20389;-69
2022/08/21 07:05:52;;;;;;;3.72;2.20;;;18.70;99.90;;;;;;5000873;28;20137;-69
2022/08/21 07:08:20;;;;;;;7.75;2.22;;;18.80;99.90;;;;;;4998101;28;20049;-70
2022/08/21 07:10:48;;;;;;;5.10;1.90;;;18.80;99.90;;;;;;4999000;28;20236;-69
2022/08/21 07:13:15;;;;;;;4.43;2.03;;;18.80;99.90;;;;;;4998287;28;20132;-69
2022/08/21 07:15:43;;;;;;;5.53;3.00;;;18.70;99.90;;;;;;4994457;28;20108;-69
2022/08/21 07:18:10;;;;;;;5.85;2.50;;;18.70;99.90;;;;;;5004240;28;20050;-69
2022/08/21 07:20:37;;;;;;;5.03;1.60;;;18.70;99.90;;;;;;5001149;28;20096;-68
2022/08/21 07:23:07;;;;;;;3.35;2.08;;;18.70;99.90;;;;;;4998798;28;20058;-71
2022/08/21 07:25:34;;;;;;;8.23;2.05;;;18.70;99.90;;;;;;4994266;28;20432;-69
2022/08/21 07:28:01;;;;;;;6.20;1.95;;;18.70;99.90;;;;;;5003047;28;20045;-71
2022/08/21 07:30:29;;;;;;;4.20;2.00;;;18.70;99.90;;;;;;4996802;28;20061;-68
2022/08/21 07:32:58;;;;;;;6.03;2.00;;;18.70;99.90;;;;;;5004303;28;20108;-70
2022/08/21 07:35:27;;;;;;;6.22;1.70;;;18.70;99.90;;;;;;4989067;28;20439;-69
2022/08/21 07:37:54;;;;;;;5.18;2.35;;;18.70;99.90;;;;;;4996296;28;20185;-71
2022/08/21 07:40:21;;;;;;;6.25;1.73;;;18.70;99.90;;;;;;5004424;28;20077;-69
2022/08/21 07:42:51;;;;;;;6.78;2.05;;;18.70;99.90;;;;;;5005701;28;20038;-70
2022/08/21 07:45:20;;;;;;;4.32;1.80;;;18.70;99.90;;;;;;4991945;28;20381;-68
2022/08/21 07:47:48;;;;;;;10.98;2.70;;;18.70;99.90;;;;;;5002848;28;20168;-68
2022/08/21 07:50:21;;;;;;;6.07;2.33;;;18.70;99.90;;;;;;5001625;28;20038;-71
2022/08/21 07:52:48;;;;;;;4.80;2.92;;;18.80;99.90;;;;;;4991596;28;20109;-68
2022/08/21 07:55:19;;;;;;;7.03;2.50;;;18.80;99.90;;;;;;4999576;28;20090;-69
2022/08/21 07:57:47;;;;;;;6.00;2.00;;;18.80;99.90;;;;;;4995740;28;20075;-68
2022/08/21 08:00:18;;;;;;;2.45;2.15;;;18.90;99.90;;;;;;4993693;28;20046;-69
2022/08/21 08:02:49;;;;;;;4.10;2.60;;;18.90;99.90;;;;;;4992765;28;20078;-69
2022/08/21 08:05:18;;;;;;;7.63;2.15;;;18.90;99.90;;;;;;5000614;28;20108;-67
2022/08/21 08:07:45;;;;;;;5.25;2.38;;;18.90;99.90;;;;;;4993851;28;20105;-69
2022/08/21 08:10:15;;;;;;;7.03;1.85;;;18.90;99.90;;;;;;4995527;28;20100;-69
2022/08/21 08:12:43;;;;;;;4.70;2.03;;;19.00;99.90;;;;;;5003665;28;20112;-69
2022/08/21 08:15:14;;;;;;;5.68;1.90;;;19.00;99.90;;;;;;4992593;28;20062;-68
2022/08/21 08:17:41;;;;;;;7.60;1.85;;;19.00;99.90;;;;;;5001126;28;20452;-69
2022/08/21 08:20:10;;;;;;;6.55;2.13;;;19.00;99.90;;;;;;4996308;28;20050;-68
2022/08/21 08:22:38;;;;;;;5.80;2.08;;;19.00;99.90;;;;;;5006132;28;20092;-69
2022/08/21 08:25:08;;;;;;;8.40;2.80;;;19.10;99.90;;;;;;5004076;28;20115;-69
2022/08/21 08:27:36;;;;;;;3.25;1.83;;;19.20;99.90;;;;;;5004187;28;20135;-68
2022/08/21 08:30:05;;;;;;;5.30;1.92;;;19.20;99.90;;;;;;5001902;28;20445;-71
2022/08/21 08:32:33;;;;;;;4.85;1.52;;;19.20;99.90;;;;;;4999883;28;20050;-68
2022/08/21 08:35:00;;;;;;;3.63;1.50;;;19.30;99.90;;;;;;5000007;28;20066;-69
2022/08/21 08:37:27;;;;;;;3.50;1.55;;;19.30;99.90;;;;;;4993429;28;20077;-70
2022/08/21 08:40:01;;;;;;;3.55;1.60;;;19.40;99.90;;;;;;4999994;28;20046;-69
2022/08/21 08:42:34;;;;;;;7.32;2.20;;;19.40;99.90;;;;;;4991750;28;20117;-68
2022/08/21 08:45:11;;;;;;;3.78;1.70;;;19.40;99.90;;;;;;5002678;28;20353;-69
2022/08/21 08:47:44;;;;;;;3.70;1.95;;;19.40;99.90;;;;;;4998611;28;20068;-68
2022/08/21 08:50:13;;;;;;;5.75;2.13;;;19.50;99.90;;;;;;5000970;28;20361;-70
2022/08/21 08:52:47;;;;;;;5.93;2.08;;;19.50;99.90;;;;;;4999155;28;20137;-68
2022/08/21 08:55:44;;;;;;;3.50;1.95;;;19.50;99.90;;;;;;4996248;28;20120;-69
2022/08/21 08:58:35;;;;;;;5.82;1.50;;;19.60;99.90;;;;;;4996590;28;20049;-70
2022/08/21 09:01:10;;;;;;;5.40;2.05;;;19.60;99.90;;;;;;4988966;28;20050;-69
2022/08/21 09:03:39;;;;;;;7.20;2.33;;;19.60;99.90;;;;;;4993262;28;20100;-69
2022/08/21 09:06:20;;;;;;;6.18;1.85;;;19.70;99.90;;;;;;4995285;28;20050;-70
2022/08/21 09:09:17;;;;;;;5.22;1.73;;;19.70;99.90;;;;;;4997232;28;20149;-68
2022/08/21 09:12:03;;;;;;;5.13;1.98;;;19.70;99.90;;;;;;5005972;28;20116;-69
2022/08/21 09:15:01;;;;;;;4.97;3.30;;;19.70;99.90;;;;;;4996796;28;20051;-69
2022/08/21 09:17:52;;;;;;;5.10;2.15;;;19.60;99.90;;;;;;4994979;28;20119;-71
2022/08/21 09:20:46;;;;;;;6.10;2.78;;;19.60;99.90;;;;;;4995449;28;20096;-69
2022/08/21 09:23:30;;;;;;;8.00;2.95;;;19.70;99.90;;;;;;4993353;28;20089;-70
2022/08/21 09:26:19;;;;;;;7.10;3.00;;;19.70;99.90;;;;;;5000364;28;20077;-69
2022/08/21 09:28:52;;;;;;;4.50;2.47;;;19.70;99.90;;;;;;4990400;28;20527;-70
2022/08/21 09:31:33;;;;;;;4.50;1.73;;;19.80;99.90;;;;;;5000567;28;20276;-69
2022/08/21 09:34:01;;;;;;;;;;;20.00;99.90;;;;;;4997283;28;20120;-68
2022/08/21 09:36:37;;;;;;;7.97;2.92;;;20.00;99.90;;;;;;5001925;28;19949;-69
2022/08/21 09:39:05;;;;;;;7.13;2.60;;;19.90;99.90;;;;;;4991279;28;20047;-72
2022/08/21 09:41:35;;;;;;;5.15;1.80;;;20.00;99.90;;;;;;5001902;28;20057;-69
2022/08/21 09:44:04;;;;;;;3.63;1.45;;;20.10;99.90;;;;;;4998553;28;20070;-69
2022/08/21 09:46:32;;;;;;;4.22;2.35;;;20.10;99.90;;;;;;4993497;28;20042;-68
2022/08/21 09:49:02;;;;;;;7.68;2.20;;;20.20;99.90;;;;;;4998130;28;20069;-69
2022/08/21 09:51:36;;;;;;;6.03;1.75;;;20.30;99.90;;;;;;4999998;28;20041;-68
2022/08/21 09:54:06;;;;;;;3.47;1.92;;;20.40;99.90;;;;;;5002241;28;20157;-68
2022/08/21 09:59:41;;;;;;;2.88;1.23;;;20.30;99.90;;;;;;5001586;28;20034;-69
2022/08/21 10:02:30;;;;;;;8.73;4.22;;;20.50;99.90;;;;;;5001425;28;20148;-68
2022/08/21 10:05:17;;;;;;;5.72;2.08;;;20.40;99.90;;;;;;4995603;28;20045;-68
2022/08/21 10:07:43;;;;;;;2.97;1.27;;;20.50;99.90;;;;;;4987929;28;20689;-69
2022/08/21 10:10:37;;;;;;;2.47;1.40;;;20.50;99.90;;;;;;4999813;28;20208;-68
2022/08/21 10:13:21;;;;;;;6.30;1.90;;;20.60;99.90;;;;;;5003811;28;20049;-70
2022/08/21 10:16:15;;;;;;;4.35;1.60;;;20.70;99.90;;;;;;5000017;28;20054;-70
2022/08/21 10:18:50;;;;;;;5.65;1.92;;;20.70;99.90;;;;;;4991728;28;20065;-69
2022/08/21 10:21:29;;;;;;;7.88;1.67;;;20.50;99.90;;;;;;5002280;28;20041;-68
2022/08/21 10:24:28;;;;;;;3.55;1.58;;;20.40;99.90;;;;;;5002824;28;20160;-68
2022/08/21 10:27:11;;;;;;;3.35;2.30;;;20.40;99.90;;;;;;4971869;28;20174;-68
2022/08/21 10:29:50;;;;;;;5.82;2.20;;;20.60;99.90;;;;;;4995486;28;20053;-68
2022/08/21 10:32:32;;;;;;;5.03;2.13;;;20.60;99.90;;;;;;5001198;28;20391;-71
2022/08/21 10:35:12;;;;;;;5.60;2.10;;;20.60;99.90;;;;;;4991942;28;20056;-70
2022/08/21 10:38:06;;;;;;;7.75;1.73;;;20.60;99.90;;;;;;5002432;28;20123;-68
2022/08/21 10:40:52;;;;;;;2.67;1.38;;;20.60;99.90;;;;;;4997482;28;20487;-70
2022/08/21 10:43:31;;;;;;;4.57;1.58;;;20.80;99.90;;;;;;4991673;28;20489;-69
2022/08/21 10:46:27;;;;;;;3.97;2.15;;;20.70;99.90;;;;;;4995364;28;20402;-68
2022/08/21 10:48:58;;;;;;;5.90;1.60;;;20.70;99.90;;;;;;4974031;28;20062;-69
2022/08/21 10:51:32;;;;;;;3.47;1.98;;;20.70;99.90;;;;;;5000221;28;20056;-70
2022/08/21 10:54:05;;;;;;;2.35;1.60;;;20.70;99.90;;;;;;4994975;28;20136;-68
2022/08/21 10:56:38;;;;;;;5.10;1.77;;;20.60;99.90;;;;;;4998434;28;20689;-68
2022/08/21 10:59:23;;;;;;;5.75;2.22;;;20.40;99.90;;;;;;4998756;28;20069;-68
2022/08/21 11:01:56;;;;;;;1.75;1.52;;;20.30;99.90;;;;;;4994216;28;20583;-68
2022/08/21 11:04:36;;;;;;;2.75;2.03;;;20.20;99.90;;;;;;4991837;28;20508;-67
2022/08/21 11:07:42;;;;;;;5.07;1.77;;;20.30;99.90;;;;;;4987808;28;20077;-68
2022/08/21 11:10:21;;;;;;;5.63;2.38;;;20.30;99.90;;;;;;5002203;28;20053;-69
2022/08/21 11:13:02;;;;;;;3.88;1.73;;;20.40;99.90;;;;;;4997714;28;20085;-68
2022/08/21 11:15:54;;;;;;;3.47;1.73;;;20.40;99.90;;;;;;4994988;28;20052;-68
2022/08/21 11:18:32;;;;;;;3.55;1.90;;;20.30;99.90;;;;;;4968574;28;20050;-69
2022/08/21 11:21:09;;;;;;;6.43;2.80;;;20.10;99.90;;;;;;5001019;28;20058;-68
2022/08/21 11:23:54;;;;;;;8.68;2.10;;;20.10;99.90;;;;;;4997392;28;20061;-68
2022/08/21 11:27:03;;;;;;;4.05;3.25;;;20.10;99.90;;;;;;4998104;28;20393;-68
2022/08/21 11:29:36;;;;;;;6.05;2.10;;;20.10;99.90;;;;;;4989388;28;20165;-69
2022/08/21 11:32:23;;;;;;;4.10;1.63;;;20.30;99.90;;;;;;4992034;28;20073;-68
2022/08/21 11:35:15;;;;;;;4.25;1.40;;;20.20;99.90;;;;;;5002234;28;20299;-67
2022/08/21 11:37:57;;;;;;;7.30;1.90;;;20.40;99.90;;;;;;4985343;28;20105;-67
2022/08/21 11:40:41;;;;;;;4.05;1.75;;;20.60;99.90;;;;;;4991697;28;20049;-70
2022/08/21 11:43:20;;;;;;;3.08;2.00;;;20.70;99.90;;;;;;4990831;28;20089;-68
2022/08/21 11:46:07;;;;;;;6.15;2.92;;;20.70;99.90;;;;;;4990792;28;20453;-71
2022/08/21 11:48:51;;;;;;;5.03;2.40;;;20.70;99.90;;;;;;4992791;28;20102;-69
2022/08/21 11:51:24;;;;;;;4.30;2.25;;;20.60;99.90;;;;;;4999547;28;20052;-67
2022/08/21 11:54:26;;;;;;;7.20;1.80;;;20.40;99.90;;;;;;4998412;28;20080;-68
2022/08/21 11:57:00;;;;;;;6.20;1.90;;;20.50;99.90;;;;;;4994967;28;20120;-68
2022/08/21 11:59:39;;;;;;;4.35;1.95;;;20.30;99.90;;;;;;5001588;28;20049;-70
2022/08/21 12:02:16;;;;;;;8.73;2.80;;;20.40;99.90;;;;;;4998589;28;21289;-68
2022/08/21 12:04:52;;;;;;;3.30;1.30;;;20.50;99.90;;;;;;4991811;28;20475;-68
2022/08/21 12:07:41;;;;;;;9.90;1.67;;;20.40;99.90;;;;;;5001745;28;20500;-68
2022/08/21 12:10:15;;;;;;;5.07;1.67;;;20.30;99.90;;;;;;4996388;28;20049;-67
2022/08/21 12:12:44;;;;;;;3.58;2.10;;;20.30;99.90;;;;;;5002170;28;20361;-68
2022/08/21 12:15:20;;;;;;;3.35;2.15;;;20.40;99.90;;;;;;4994459;28;20153;-68
2022/08/21 12:18:18;;;;;;;4.15;2.15;;;20.30;99.90;;;;;;4993264;28;20093;-67
2022/08/21 12:21:02;;;;;;;2.92;1.95;;;20.40;99.90;;;;;;4996108;28;20084;-71
2022/08/21 12:23:48;;;;;;;4.05;1.95;;;20.60;99.90;;;;;;4999312;28;20080;-68
2022/08/21 12:26:21;;;;;;;4.13;1.55;;;20.80;99.90;;;;;;5000674;28;20057;-68
2022/08/21 12:28:48;;;;;;;4.18;1.52;;;20.80;99.90;;;;;;5006088;28;20438;-72
2022/08/21 12:31:24;;;;;;;4.95;2.42;;;21.00;99.90;;;;;;5001586;28;20076;-68
2022/08/21 12:33:56;;;;;;;5.55;1.48;;;21.00;99.90;;;;;;5000114;28;20042;-68
2022/08/21 12:36:37;;;;;;;7.88;2.22;;;21.00;99.90;;;;;;4997254;28;20108;-70
2022/08/21 12:39:17;;;;;;;7.00;1.88;;;20.80;99.90;;;;;;4991573;28;20586;-68
2022/08/21 12:41:52;;;;;;;3.58;1.92;;;20.80;99.90;;;;;;4993653;28;20042;-68
2022/08/21 12:44:29;;;;;;;3.20;1.83;;;20.70;99.90;;;;;;4994091;28;20085;-68
2022/08/21 12:46:59;;;;;;;3.45;1.60;;;20.70;99.90;;;;;;4996360;28;20556;-68
2022/08/21 12:49:32;;;;;;;3.40;1.50;;;20.70;99.90;;;;;;4997665;28;20477;-69
2022/08/21 12:52:22;;;;;;;5.00;1.98;;;20.90;99.90;;;;;;4997448;28;20125;-70
2022/08/21 12:54:49;;;;;;;4.00;1.58;;;21.10;99.90;;;;;;4989355;28;20108;-69
2022/08/21 12:57:25;;;;;;;5.22;2.30;;;21.10;99.90;;;;;;4997997;28;20365;-68
2022/08/21 12:59:59;;;;;;;7.97;1.65;;;21.20;99.90;;;;;;4993880;28;20042;-69
2022/08/21 13:02:31;;;;;;;6.68;3.45;;;21.00;99.90;;;;;;4995859;28;20464;-68
2022/08/21 13:05:04;;;;;;;3.08;1.52;;;21.20;99.90;;;;;;4988608;28;20053;-67
2022/08/21 13:07:34;;;;;;;6.05;2.53;;;21.00;99.90;;;;;;4993220;28;20096;-68
2022/08/21 13:10:20;;;;;;;2.25;1.63;;;21.10;99.90;;;;;;4995612;28;20124;-67
2022/08/21 13:12:48;;;;;;;5.90;1.85;;;21.10;99.90;;;;;;5006988;28;20165;-68
2022/08/21 13:15:22;;;;;;;4.50;1.80;;;21.30;99.90;;;;;;4994343;28;20112;-70
2022/08/21 13:17:50;;;;;;;6.32;2.00;;;21.30;99.90;;;;;;4988717;28;20229;-68
2022/08/21 13:20:27;;;;;;;4.80;1.67;;;21.10;99.90;;;;;;4991236;28;20136;-68